sensor_id;sensor_type;location;lat;lon;timestamp;pressure;altitude;pressure_sealevel;temperature;humidity
24825;BME280;12910;57.690;11.974;2023-02-26T00:01:24;100928.22;;;-1.49;100.00
24825;BME280;12910;57.690;11.974;2023-02-26T00:03:51;100929.75;;;-1.51;100.00
24825;BME280;12910;57.690;11.974;2023-02-26T00:06:18;100929.28;;;-1.58;100.00
24825;BME280;12910;57.690;11.974;2023-02-26T00:08:43;100933.78;;;-1.53;100.00
24825;BME280;12910;57.690;11.974;2023-02-26T00:11:10;100941.75;;;-1.47;100.00
24825;BME280;12910;57.690;11.974;2023-02-26T00:13:37;100946.75;;;-1.47;100.00
24825;BME280;12910;57.690;11.974;2023-02-26T00:16:08;100952.25;;;-1.41;100.00
24825;BME280;12910;57.690;11.974;2023-02-26T00:18:35;100945.22;;;-1.45;100.00
24825;BME280;12910;57.690;11.974;2023-02-26T00:21:01;100942.72;;;-1.45;100.00
24825;BME280;12910;57.690;11.974;2023-02-26T00:23:26;100956.28;;;-1.43;100.00
24825;BME280;12910;57.690;11.974;2023-02-26T00:25:52;100944.81;;;-1.51;100.00
24825;BME280;12910;57.690;11.974;2023-02-26T00:28:17;100963.28;;;-1.51;100.00
24825;BME280;12910;57.690;11.974;2023-02-26T00:30:43;100966.44;;;-1.53;100.00
24825;BME280;12910;57.690;11.974;2023-02-26T00:33:09;100959.78;;;-1.53;100.00
24825;BME280;12910;57.690;11.974;2023-02-26T00:35:35;100964.69;;;-1.54;100.00
24825;BME280;12910;57.690;11.974;2023-02-26T00:38:05;100966.22;;;-1.57;100.00
24825;BME280;12910;57.690;11.974;2023-02-26T00:40:44;100978.25;;;-1.52;100.00
24825;BME280;12910;57.690;11.974;2023-02-26T00:43:28;100969.06;;;-1.52;100.00
24825;BME280;12910;57.690;11.974;2023-02-26T00:51:55;100976.06;;;-1.48;100.00
24825;BME280;12910;57.690;11.974;2023-02-26T00:54:23;100976.72;;;-1.50;100.00
24825;BME280;12910;57.690;11.974;2023-02-26T00:56:51;100986.97;;;-1.47;100.00
24825;BME280;12910;57.690;11.974;2023-02-26T00:59:17;100989.06;;;-1.53;100.00
24825;BME280;12910;57.690;11.974;2023-02-26T01:01:43;100985.81;;;-1.52;100.00
24825;BME280;12910;57.690;11.974;2023-02-26T01:04:11;100978.69;;;-1.58;100.00
24825;BME280;12910;57.690;11.974;2023-02-26T01:06:43;100990.06;;;-1.51;100.00
24825;BME280;12910;57.690;11.974;2023-02-26T01:09:25;100978.69;;;-1.58;100.00
24825;BME280;12910;57.690;11.974;2023-02-26T01:11:51;100992.59;;;-1.51;100.00
24825;BME280;12910;57.690;11.974;2023-02-26T01:14:18;100998.91;;;-1.57;100.00
24825;BME280;12910;57.690;11.974;2023-02-26T01:17:31;100996.19;;;-1.60;100.00
24825;BME280;12910;57.690;11.974;2023-02-26T01:20:05;101014.75;;;-1.58;100.00
24825;BME280;12910;57.690;11.974;2023-02-26T01:25:32;101018.69;;;-1.61;100.00
24825;BME280;12910;57.690;11.974;2023-02-26T01:27:59;101035.97;;;-1.54;100.00
24825;BME280;12910;57.690;11.974;2023-02-26T01:30:25;101023.03;;;-1.59;100.00
24825;BME280;12910;57.690;11.974;2023-02-26T01:35:41;101027.63;;;-1.65;100.00
24825;BME280;12910;57.690;11.974;2023-02-26T01:38:38;101034.66;;;-1.61;100.00
24825;BME280;12910;57.690;11.974;2023-02-26T01:43:50;101034.84;;;-1.58;100.00
24825;BME280;12910;57.690;11.974;2023-02-26T01:46:27;101039.03;;;-1.58;100.00
24825;BME280;12910;57.690;11.974;2023-02-26T01:48:57;101044.16;;;-1.57;100.00
24825;BME280;12910;57.690;11.974;2023-02-26T01:54:10;101050.69;;;-1.59;100.00
24825;BME280;12910;57.690;11.974;2023-02-26T01:56:36;101051.25;;;-1.63;100.00
24825;BME280;12910;57.690;11.974;2023-02-26T01:59:03;101058.56;;;-1.66;100.00
24825;BME280;12910;57.690;11.974;2023-02-26T02:01:31;101061.06;;;-1.66;100.00
24825;BME280;12910;57.690;11.974;2023-02-26T02:03:57;101056.47;;;-1.72;100.00
24825;BME280;12910;57.690;11.974;2023-02-26T02:06:24;101063.38;;;-1.69;100.00
24825;BME280;12910;57.690;11.974;2023-02-26T02:08:50;101070.03;;;-1.69;100.00
24825;BME280;12910;57.690;11.974;2023-02-26T02:11:16;101088.19;;;-1.74;100.00
24825;BME280;12910;57.690;11.974;2023-02-26T02:35:19;101098.53;;;-1.81;100.00
24825;BME280;12910;57.690;11.974;2023-02-26T02:38:06;101100.94;;;-1.82;100.00
24825;BME280;12910;57.690;11.974;2023-02-26T02:40:35;101115.16;;;-1.83;100.00
24825;BME280;12910;57.690;11.974;2023-02-26T02:43:16;101121.47;;;-1.76;100.00
24825;BME280;12910;57.690;11.974;2023-02-26T02:48:21;101128.81;;;-1.79;100.00
24825;BME280;12910;57.690;11.974;2023-02-26T02:50:55;101126.81;;;-1.83;100.00
24825;BME280;12910;57.690;11.974;2023-02-26T02:53:26;101130.44;;;-1.80;100.00
24825;BME280;12910;57.690;11.974;2023-02-26T02:56:02;101134.59;;;-1.80;100.00
24825;BME280;12910;57.690;11.974;2023-02-26T02:58:33;101132.84;;;-1.81;100.00
24825;BME280;12910;57.690;11.974;2023-02-26T03:01:05;101139.38;;;-1.83;100.00
24825;BME280;12910;57.690;11.974;2023-02-26T03:03:38;101143.00;;;-1.80;100.00
24825;BME280;12910;57.690;11.974;2023-02-26T03:06:07;101151.06;;;-1.84;100.00
24825;BME280;12910;57.690;11.974;2023-02-26T03:08:36;101147.97;;;-1.92;100.00
24825;BME280;12910;57.690;11.974;2023-02-26T03:11:03;101153.25;;;-1.89;100.00
24825;BME280;12910;57.690;11.974;2023-02-26T03:13:28;101146.66;;;-1.86;100.00
24825;BME280;12910;57.690;11.974;2023-02-26T03:15:57;101150.84;;;-1.87;100.00
24825;BME280;12910;57.690;11.974;2023-02-26T03:18:59;101147.22;;;-1.91;100.00
24825;BME280;12910;57.690;11.974;2023-02-26T03:26:33;101157.09;;;-2.04;100.00
24825;BME280;12910;57.690;11.974;2023-02-26T03:31:53;101157.66;;;-2.08;100.00
24825;BME280;12910;57.690;11.974;2023-02-26T03:36:48;101178.09;;;-2.04;100.00
24825;BME280;12910;57.690;11.974;2023-02-26T03:39:34;101184.03;;;-2.13;100.00
24825;BME280;12910;57.690;11.974;2023-02-26T03:42:17;101185.84;;;-2.23;100.00
24825;BME280;12910;57.690;11.974;2023-02-26T03:44:51;101183.38;;;-2.33;100.00
24825;BME280;12910;57.690;11.974;2023-02-26T03:47:18;101186.88;;;-2.31;100.00
24825;BME280;12910;57.690;11.974;2023-02-26T03:49:52;101193.00;;;-2.27;100.00
24825;BME280;12910;57.690;11.974;2023-02-26T03:52:22;101189.00;;;-2.25;100.00
24825;BME280;12910;57.690;11.974;2023-02-26T03:54:59;101178.34;;;-2.33;100.00
24825;BME280;12910;57.690;11.974;2023-02-26T03:57:26;101194.41;;;-2.31;100.00
24825;BME280;12910;57.690;11.974;2023-02-26T03:59:51;101206.72;;;-2.34;100.00
24825;BME280;12910;57.690;11.974;2023-02-26T04:02:27;101202.44;;;-2.35;100.00
24825;BME280;12910;57.690;11.974;2023-02-26T04:05:05;101188.38;;;-2.33;100.00
24825;BME280;12910;57.690;11.974;2023-02-26T04:07:32;101196.16;;;-2.30;100.00
24825;BME280;12910;57.690;11.974;2023-02-26T04:09:57;101193.53;;;-2.31;100.00
24825;BME280;12910;57.690;11.974;2023-02-26T04:12:24;101203.22;;;-2.36;100.00
24825;BME280;12910;57.690;11.974;2023-02-26T04:14:50;101198.22;;;-2.36;100.00
24825;BME280;12910;57.690;11.974;2023-02-26T04:17:16;101213.75;;;-2.30;100.00
24825;BME280;12910;57.690;11.974;2023-02-26T04:19:42;101218.28;;;-2.36;100.00
24825;BME280;12910;57.690;11.974;2023-02-26T04:22:07;101222.66;;;-2.33;100.00
24825;BME280;12910;57.690;11.974;2023-02-26T04:24:33;101220.16;;;-2.33;100.00
24825;BME280;12910;57.690;11.974;2023-02-26T04:26:58;101228.81;;;-2.30;100.00
24825;BME280;12910;57.690;11.974;2023-02-26T04:29:24;101219.25;;;-2.34;100.00
24825;BME280;12910;57.690;11.974;2023-02-26T04:31:49;101227.44;;;-2.37;100.00
24825;BME280;12910;57.690;11.974;2023-02-26T04:34:15;101235.09;;;-2.35;100.00
24825;BME280;12910;57.690;11.974;2023-02-26T04:36:40;101229.66;;;-2.29;100.00
24825;BME280;12910;57.690;11.974;2023-02-26T04:39:06;101234.69;;;-2.29;100.00
24825;BME280;12910;57.690;11.974;2023-02-26T04:41:31;101242.81;;;-2.22;100.00
24825;BME280;12910;57.690;11.974;2023-02-26T04:43:57;101243.94;;;-2.18;100.00
24825;BME280;12910;57.690;11.974;2023-02-26T04:46:22;101239.28;;;-2.13;100.00
24825;BME280;12910;57.690;11.974;2023-02-26T04:48:48;101240.28;;;-2.11;100.00
24825;BME280;12910;57.690;11.974;2023-02-26T04:51:13;101233.25;;;-2.15;100.00
24825;BME280;12910;57.690;11.974;2023-02-26T04:53:39;101234.44;;;-2.22;100.00
24825;BME280;12910;57.690;11.974;2023-02-26T04:56:04;101229.44;;;-2.32;100.00
24825;BME280;12910;57.690;11.974;2023-02-26T04:58:31;101239.72;;;-2.29;100.00
24825;BME280;12910;57.690;11.974;2023-02-26T05:00:56;101247.63;;;-2.35;100.00
24825;BME280;12910;57.690;11.974;2023-02-26T05:03:21;101259.56;;;-2.32;100.00
24825;BME280;12910;57.690;11.974;2023-02-26T05:05:47;101252.91;;;-2.32;100.00
24825;BME280;12910;57.690;11.974;2023-02-26T05:08:12;101256.94;;;-2.34;100.00
24825;BME280;12910;57.690;11.974;2023-02-26T05:10:38;101254.41;;;-2.34;100.00
24825;BME280;12910;57.690;11.974;2023-02-26T05:13:04;101262.75;;;-2.45;100.00
24825;BME280;12910;57.690;11.974;2023-02-26T05:15:29;101268.28;;;-2.49;100.00
24825;BME280;12910;57.690;11.974;2023-02-26T05:17:55;101263.91;;;-2.52;100.00
24825;BME280;12910;57.690;11.974;2023-02-26T05:20:20;101263.75;;;-2.54;100.00
24825;BME280;12910;57.690;11.974;2023-02-26T05:22:46;101279.06;;;-2.51;100.00
24825;BME280;12910;57.690;11.974;2023-02-26T05:25:11;101273.31;;;-2.49;100.00
24825;BME280;12910;57.690;11.974;2023-02-26T05:27:38;101285.84;;;-2.49;100.00
24825;BME280;12910;57.690;11.974;2023-02-26T05:30:05;101276.84;;;-2.58;100.00
24825;BME280;12910;57.690;11.974;2023-02-26T05:32:31;101287.50;;;-2.60;100.00
24825;BME280;12910;57.690;11.974;2023-02-26T05:34:56;101273.81;;;-2.64;100.00
24825;BME280;12910;57.690;11.974;2023-02-26T05:37:22;101282.25;;;-2.63;100.00
24825;BME280;12910;57.690;11.974;2023-02-26T05:39:47;101281.84;;;-2.58;100.00
24825;BME280;12910;57.690;11.974;2023-02-26T05:42:13;101276.31;;;-2.54;100.00
24825;BME280;12910;57.690;11.974;2023-02-26T05:44:38;101277.47;;;-2.60;100.00
24825;BME280;12910;57.690;11.974;2023-02-26T05:47:03;101289.38;;;-2.58;100.00
24825;BME280;12910;57.690;11.974;2023-02-26T05:49:29;101278.09;;;-2.63;100.00
24825;BME280;12910;57.690;11.974;2023-02-26T05:51:54;101285.13;;;-2.59;100.00
24825;BME280;12910;57.690;11.974;2023-02-26T05:54:19;101283.84;;;-2.64;100.00
24825;BME280;12910;57.690;11.974;2023-02-26T05:56:45;101290.53;;;-2.64;100.00
24825;BME280;12910;57.690;11.974;2023-02-26T05:59:10;101300.44;;;-2.66;100.00
24825;BME280;12910;57.690;11.974;2023-02-26T06:01:36;101298.69;;;-2.67;100.00
24825;BME280;12910;57.690;11.974;2023-02-26T06:04:03;101313.59;;;-2.69;100.00
24825;BME280;12910;57.690;11.974;2023-02-26T06:06:29;101297.78;;;-2.68;100.00
24825;BME280;12910;57.690;11.974;2023-02-26T06:08:55;101303.56;;;-2.69;100.00
24825;BME280;12910;57.690;11.974;2023-02-26T06:11:21;101304.44;;;-2.68;100.00
24825;BME280;12910;57.690;11.974;2023-02-26T06:13:46;101318.59;;;-2.58;100.00
24825;BME280;12910;57.690;11.974;2023-02-26T06:16:12;101317.75;;;-2.59;100.00
24825;BME280;12910;57.690;11.974;2023-02-26T06:18:37;101329.03;;;-2.64;100.00
24825;BME280;12910;57.690;11.974;2023-02-26T06:21:03;101324.91;;;-2.63;100.00
24825;BME280;12910;57.690;11.974;2023-02-26T06:23:28;101324.53;;;-2.68;100.00
24825;BME280;12910;57.690;11.974;2023-02-26T06:25:53;101337.19;;;-2.67;100.00
24825;BME280;12910;57.690;11.974;2023-02-26T06:28:19;101353.63;;;-2.70;100.00
24825;BME280;12910;57.690;11.974;2023-02-26T06:30:45;101340.22;;;-2.71;100.00
24825;BME280;12910;57.690;11.974;2023-02-26T06:33:10;101341.84;;;-2.71;100.00
24825;BME280;12910;57.690;11.974;2023-02-26T06:35:36;101340.81;;;-2.73;100.00
24825;BME280;12910;57.690;11.974;2023-02-26T06:38:02;101356.88;;;-2.71;100.00
24825;BME280;12910;57.690;11.974;2023-02-26T06:40:27;101343.97;;;-2.76;100.00
24825;BME280;12910;57.690;11.974;2023-02-26T06:42:53;101346.25;;;-2.79;100.00
24825;BME280;12910;57.690;11.974;2023-02-26T06:45:18;101361.69;;;-2.74;100.00
24825;BME280;12910;57.690;11.974;2023-02-26T06:47:44;101358.91;;;-2.77;100.00
24825;BME280;12910;57.690;11.974;2023-02-26T06:50:10;101364.94;;;-2.75;100.00
24825;BME280;12910;57.690;11.974;2023-02-26T06:52:35;101380.75;;;-2.76;100.00
24825;BME280;12910;57.690;11.974;2023-02-26T06:55:02;101375.19;;;-2.83;100.00
24825;BME280;12910;57.690;11.974;2023-02-26T06:57:28;101384.84;;;-2.77;100.00
24825;BME280;12910;57.690;11.974;2023-02-26T06:59:53;101376.34;;;-2.79;100.00
24825;BME280;12910;57.690;11.974;2023-02-26T07:02:20;101380.22;;;-2.83;100.00
24825;BME280;12910;57.690;11.974;2023-02-26T07:04:45;101388.47;;;-2.84;100.00
24825;BME280;12910;57.690;11.974;2023-02-26T07:07:11;101396.16;;;-2.82;100.00
24825;BME280;12910;57.690;11.974;2023-02-26T07:09:37;101409.09;;;-2.77;100.00
24825;BME280;12910;57.690;11.974;2023-02-26T07:12:03;101396.78;;;-2.85;100.00
24825;BME280;12910;57.690;11.974;2023-02-26T07:14:31;101398.78;;;-2.80;100.00
24825;BME280;12910;57.690;11.974;2023-02-26T07:16:57;101397.03;;;-2.82;100.00
24825;BME280;12910;57.690;11.974;2023-02-26T07:19:22;101400.28;;;-2.72;100.00
24825;BME280;12910;57.690;11.974;2023-02-26T07:21:47;101404.56;;;-2.71;100.00
24825;BME280;12910;57.690;11.974;2023-02-26T07:24:13;101423.41;;;-2.66;100.00
24825;BME280;12910;57.690;11.974;2023-02-26T07:26:38;101426.13;;;-2.63;100.00
24825;BME280;12910;57.690;11.974;2023-02-26T07:29:04;101429.66;;;-2.61;100.00
24825;BME280;12910;57.690;11.974;2023-02-26T07:31:29;101427.03;;;-2.62;100.00
24825;BME280;12910;57.690;11.974;2023-02-26T07:33:55;101433.94;;;-2.60;100.00
24825;BME280;12910;57.690;11.974;2023-02-26T07:36:21;101436.19;;;-2.63;100.00
24825;BME280;12910;57.690;11.974;2023-02-26T07:38:46;101431.16;;;-2.63;100.00
24825;BME280;12910;57.690;11.974;2023-02-26T07:41:12;101438.31;;;-2.57;100.00
24825;BME280;12910;57.690;11.974;2023-02-26T07:43:37;101437.44;;;-2.58;100.00
24825;BME280;12910;57.690;11.974;2023-02-26T07:46:03;101439.22;;;-2.46;100.00
24825;BME280;12910;57.690;11.974;2023-02-26T07:48:29;101447.50;;;-2.47;100.00
24825;BME280;12910;57.690;11.974;2023-02-26T07:50:54;101445.59;;;-2.40;100.00
24825;BME280;12910;57.690;11.974;2023-02-26T07:53:20;101442.84;;;-2.43;100.00
24825;BME280;12910;57.690;11.974;2023-02-26T07:55:46;101442.59;;;-2.36;100.00
24825;BME280;12910;57.690;11.974;2023-02-26T07:58:11;101445.97;;;-2.25;100.00
24825;BME280;12910;57.690;11.974;2023-02-26T08:00:37;101453.13;;;-2.19;100.00
24825;BME280;12910;57.690;11.974;2023-02-26T08:03:02;101450.50;;;-2.10;100.00
24825;BME280;12910;57.690;11.974;2023-02-26T08:05:27;101455.63;;;-2.09;100.00
24825;BME280;12910;57.690;11.974;2023-02-26T08:07:53;101463.06;;;-2.10;100.00
24825;BME280;12910;57.690;11.974;2023-02-26T08:10:18;101470.31;;;-2.03;100.00
24825;BME280;12910;57.690;11.974;2023-02-26T08:12:44;101463.78;;;-2.01;100.00
24825;BME280;12910;57.690;11.974;2023-02-26T08:15:09;101455.00;;;-2.06;100.00
24825;BME280;12910;57.690;11.974;2023-02-26T08:17:37;101473.31;;;-1.97;100.00
24825;BME280;12910;57.690;11.974;2023-02-26T08:20:02;101474.69;;;-1.90;100.00
24825;BME280;12910;57.690;11.974;2023-02-26T08:22:29;101464.16;;;-1.86;100.00
24825;BME280;12910;57.690;11.974;2023-02-26T08:24:55;101479.06;;;-1.77;100.00
24825;BME280;12910;57.690;11.974;2023-02-26T08:27:20;101481.94;;;-1.73;100.00
24825;BME280;12910;57.690;11.974;2023-02-26T08:29:45;101482.56;;;-1.65;100.00
24825;BME280;12910;57.690;11.974;2023-02-26T08:32:14;101482.56;;;-1.65;100.00
24825;BME280;12910;57.690;11.974;2023-02-26T08:34:40;101466.97;;;-1.61;100.00
24825;BME280;12910;57.690;11.974;2023-02-26T08:37:05;101471.84;;;-1.52;100.00
24825;BME280;12910;57.690;11.974;2023-02-26T08:39:34;101485.78;;;-1.45;100.00
24825;BME280;12910;57.690;11.974;2023-02-26T08:42:03;101482.75;;;-1.41;100.00
24825;BME280;12910;57.690;11.974;2023-02-26T08:44:28;101487.03;;;-1.40;100.00
24825;BME280;12910;57.690;11.974;2023-02-26T08:46:53;101487.38;;;-1.35;100.00
24825;BME280;12910;57.690;11.974;2023-02-26T08:49:20;101496.28;;;-1.29;100.00
24825;BME280;12910;57.690;11.974;2023-02-26T08:51:45;101492.34;;;-1.25;100.00
24825;BME280;12910;57.690;11.974;2023-02-26T08:54:11;101495.25;;;-1.20;100.00
24825;BME280;12910;57.690;11.974;2023-02-26T08:56:37;101505.78;;;-1.14;100.00
24825;BME280;12910;57.690;11.974;2023-02-26T08:59:02;101492.31;;;-1.15;100.00
24825;BME280;12910;57.690;11.974;2023-02-26T09:01:28;101487.41;;;-1.13;100.00
24825;BME280;12910;57.690;11.974;2023-02-26T09:03:53;101491.41;;;-1.05;100.00
24825;BME280;12910;57.690;11.974;2023-02-26T09:06:18;101494.38;;;-0.99;100.00
24825;BME280;12910;57.690;11.974;2023-02-26T09:08:44;101498.91;;;-0.95;100.00
24825;BME280;12910;57.690;11.974;2023-02-26T09:11:09;101496.63;;;-0.91;100.00
24825;BME280;12910;57.690;11.974;2023-02-26T09:13:35;101495.34;;;-0.86;100.00
24825;BME280;12910;57.690;11.974;2023-02-26T09:16:00;101511.91;;;-0.78;100.00
24825;BME280;12910;57.690;11.974;2023-02-26T09:18:26;101491.06;;;-0.87;100.00
24825;BME280;12910;57.690;11.974;2023-02-26T09:20:51;101507.97;;;-0.74;100.00
24825;BME280;12910;57.690;11.974;2023-02-26T09:23:17;101522.00;;;-0.66;100.00
24825;BME280;12910;57.690;11.974;2023-02-26T09:25:42;101516.47;;;-0.62;100.00
24825;BME280;12910;57.690;11.974;2023-02-26T09:28:08;101530.50;;;-0.54;100.00
24825;BME280;12910;57.690;11.974;2023-02-26T09:30:33;101509.72;;;-0.51;100.00
24825;BME280;12910;57.690;11.974;2023-02-26T09:32:59;101517.97;;;-0.42;100.00
24825;BME280;12910;57.690;11.974;2023-02-26T09:35:24;101526.75;;;-0.37;100.00
24825;BME280;12910;57.690;11.974;2023-02-26T09:37:49;101527.75;;;-0.35;100.00
24825;BME280;12910;57.690;11.974;2023-02-26T09:40:56;101506.59;;;-0.37;100.00
24825;BME280;12910;57.690;11.974;2023-02-26T09:43:42;101533.50;;;-0.13;100.00
24825;BME280;12910;57.690;11.974;2023-02-26T09:46:32;101532.09;;;-0.10;100.00
24825;BME280;12910;57.690;11.974;2023-02-26T09:51:45;101533.09;;;0.04;100.00
24825;BME280;12910;57.690;11.974;2023-02-26T09:54:20;101517.31;;;0.07;100.00
24825;BME280;12910;57.690;11.974;2023-02-26T09:56:47;101532.34;;;0.17;100.00
24825;BME280;12910;57.690;11.974;2023-02-26T09:59:12;101540.50;;;0.25;100.00
24825;BME280;12910;57.690;11.974;2023-02-26T10:01:45;101544.97;;;0.29;100.00
24825;BME280;12910;57.690;11.974;2023-02-26T10:04:23;101549.06;;;0.39;100.00
24825;BME280;12910;57.690;11.974;2023-02-26T10:09:59;101545.53;;;0.49;100.00
24825;BME280;12910;57.690;11.974;2023-02-26T10:12:29;101538.53;;;0.56;100.00
24825;BME280;12910;57.690;11.974;2023-02-26T10:15:02;101538.63;;;0.58;100.00
24825;BME280;12910;57.690;11.974;2023-02-26T10:20:20;101548.63;;;0.68;100.00
24825;BME280;12910;57.690;11.974;2023-02-26T10:23:05;101524.94;;;0.66;100.00
24825;BME280;12910;57.690;11.974;2023-02-26T10:25:45;101536.09;;;0.82;100.00
24825;BME280;12910;57.690;11.974;2023-02-26T10:29:33;101543.91;;;0.85;100.00
24825;BME280;12910;57.690;11.974;2023-02-26T10:34:53;101545.19;;;0.91;100.00
24825;BME280;12910;57.690;11.974;2023-02-26T10:39:50;101548.16;;;0.98;100.00
24825;BME280;12910;57.690;11.974;2023-02-26T10:42:31;101549.16;;;1.00;100.00
24825;BME280;12910;57.690;11.974;2023-02-26T10:47:50;101549.03;;;1.10;100.00
24825;BME280;12910;57.690;11.974;2023-02-26T10:50:20;101559.31;;;1.13;100.00
24825;BME280;12910;57.690;11.974;2023-02-26T10:52:48;101551.22;;;1.17;100.00
24825;BME280;12910;57.690;11.974;2023-02-26T10:57:44;101551.84;;;1.27;100.00
24825;BME280;12910;57.690;11.974;2023-02-26T11:00:19;101552.84;;;1.29;100.00
24825;BME280;12910;57.690;11.974;2023-02-26T11:02:47;101557.22;;;1.31;100.00
24825;BME280;12910;57.690;11.974;2023-02-26T11:05:22;101559.97;;;1.34;100.00
24825;BME280;12910;57.690;11.974;2023-02-26T11:07:51;101560.69;;;1.45;100.00
24825;BME280;12910;57.690;11.974;2023-02-26T11:10:25;101559.25;;;1.49;100.00
24825;BME280;12910;57.690;11.974;2023-02-26T11:12:52;101567.34;;;1.57;100.00
24825;BME280;12910;57.690;11.974;2023-02-26T11:15:20;101565.81;;;1.59;100.00
24825;BME280;12910;57.690;11.974;2023-02-26T11:17:47;101559.00;;;1.58;100.00
24825;BME280;12910;57.690;11.974;2023-02-26T11:20:36;101571.19;;;1.63;100.00
24825;BME280;12910;57.690;11.974;2023-02-26T11:23:06;101569.06;;;1.69;100.00
24825;BME280;12910;57.690;11.974;2023-02-26T11:25:35;101560.03;;;1.73;100.00
24825;BME280;12910;57.690;11.974;2023-02-26T11:28:18;101558.66;;;1.78;100.00
24825;BME280;12910;57.690;11.974;2023-02-26T11:30:44;101549.66;;;1.82;100.00
24825;BME280;12910;57.690;11.974;2023-02-26T11:33:21;101547.31;;;1.85;100.00
24825;BME280;12910;57.690;11.974;2023-02-26T11:35:47;101551.13;;;1.92;100.00
24825;BME280;12910;57.690;11.974;2023-02-26T11:38:18;101548.81;;;1.95;100.00
24825;BME280;12910;57.690;11.974;2023-02-26T11:40:47;101547.47;;;2.00;100.00
24825;BME280;12910;57.690;11.974;2023-02-26T11:43:19;101549.22;;;2.01;100.00
24825;BME280;12910;57.690;11.974;2023-02-26T11:45:48;101539.56;;;1.95;100.00
24825;BME280;12910;57.690;11.974;2023-02-26T11:48:22;101538.25;;;2.00;100.00
24825;BME280;12910;57.690;11.974;2023-02-26T11:50:52;101542.03;;;2.07;100.00
24825;BME280;12910;57.690;11.974;2023-02-26T11:56:07;101540.47;;;2.09;100.00
24825;BME280;12910;57.690;11.974;2023-02-26T11:58:35;101533.66;;;2.08;100.00
24825;BME280;12910;57.690;11.974;2023-02-26T12:01:03;101536.63;;;2.14;100.00
24825;BME280;12910;57.690;11.974;2023-02-26T12:03:32;101534.28;;;2.17;100.00
24825;BME280;12910;57.690;11.974;2023-02-26T12:05:58;101540.31;;;2.20;100.00
24825;BME280;12910;57.690;11.974;2023-02-26T12:08:33;101544.03;;;2.25;100.00
24825;BME280;12910;57.690;11.974;2023-02-26T12:11:27;101530.78;;;2.29;100.00
24825;BME280;12910;57.690;11.974;2023-02-26T12:16:54;101524.19;;;2.31;100.00
24825;BME280;12910;57.690;11.974;2023-02-26T12:33:15;101522.63;;;2.60;100.00
24825;BME280;12910;57.690;11.974;2023-02-26T12:48:53;101515.69;;;2.84;100.00
24825;BME280;12910;57.690;11.974;2023-02-26T13:03:40;101514.59;;;2.94;100.00
24825;BME280;12910;57.690;11.974;2023-02-26T13:19:44;101520.81;;;3.13;100.00
24825;BME280;12910;57.690;11.974;2023-02-26T13:22:23;101520.97;;;3.16;100.00
24825;BME280;12910;57.690;11.974;2023-02-26T13:27:16;101524.06;;;3.25;100.00
24825;BME280;12910;57.690;11.974;2023-02-26T13:29:55;101527.59;;;3.27;100.00
24825;BME280;12910;57.690;11.974;2023-02-26T13:32:24;101515.50;;;3.23;100.00
24825;BME280;12910;57.690;11.974;2023-02-26T13:35:00;101482.44;;;3.06;100.00
24825;BME280;12910;57.690;11.974;2023-02-26T13:37:39;101513.94;;;3.25;100.00
24825;BME280;12910;57.690;11.974;2023-02-26T13:42:50;101521.47;;;3.23;100.00
24825;BME280;12910;57.690;11.974;2023-02-26T13:48:10;101521.81;;;3.30;100.00
24825;BME280;12910;57.690;11.974;2023-02-26T13:55:50;101518.34;;;3.42;100.00
24825;BME280;12910;57.690;11.974;2023-02-26T14:01:15;101532.19;;;3.48;100.00
24825;BME280;12910;57.690;11.974;2023-02-26T14:06:35;101542.75;;;3.40;100.00
24825;BME280;12910;57.690;11.974;2023-02-26T14:19:43;101532.13;;;3.46;98.16
24825;BME280;12910;57.690;11.974;2023-02-26T14:22:20;101532.56;;;3.54;97.14
24825;BME280;12910;57.690;11.974;2023-02-26T14:25:00;101526.50;;;3.52;96.30
24825;BME280;12910;57.690;11.974;2023-02-26T14:27:31;101532.56;;;3.54;96.28
24825;BME280;12910;57.690;11.974;2023-02-26T14:35:15;101526.91;;;3.58;98.16
24825;BME280;12910;57.690;11.974;2023-02-26T14:37:55;101542.19;;;3.59;100.00
24825;BME280;12910;57.690;11.974;2023-02-26T14:40:23;101527.94;;;3.62;100.00
24825;BME280;12910;57.690;11.974;2023-02-26T14:47:43;101565.19;;;3.63;97.89
24825;BME280;12910;57.690;11.974;2023-02-26T14:50:18;101556.03;;;3.65;97.37
24825;BME280;12910;57.690;11.974;2023-02-26T14:53:12;101542.66;;;3.67;97.81
24825;BME280;12910;57.690;11.974;2023-02-26T14:58:48;101547.53;;;3.64;95.69
24825;BME280;12910;57.690;11.974;2023-02-26T15:04:13;101559.06;;;3.59;98.03
24825;BME280;12910;57.690;11.974;2023-02-26T15:25:38;101567.25;;;3.55;100.00
24825;BME280;12910;57.690;11.974;2023-02-26T15:28:06;101564.81;;;3.56;100.00
24825;BME280;12910;57.690;11.974;2023-02-26T15:30:35;101558.88;;;3.56;100.00
24825;BME280;12910;57.690;11.974;2023-02-26T15:33:04;101559.84;;;3.58;100.00
24825;BME280;12910;57.690;11.974;2023-02-26T15:35:31;101566.75;;;3.61;100.00
24825;BME280;12910;57.690;11.974;2023-02-26T15:38:00;101556.25;;;3.54;100.00
24825;BME280;12910;57.690;11.974;2023-02-26T15:40:28;101571.47;;;3.54;100.00
24825;BME280;12910;57.690;11.974;2023-02-26T15:42:56;101570.78;;;3.57;100.00
24825;BME280;12910;57.690;11.974;2023-02-26T15:45:26;101572.34;;;3.55;100.00
24825;BME280;12910;57.690;11.974;2023-02-26T15:47:58;101571.97;;;3.49;100.00
24825;BME280;12910;57.690;11.974;2023-02-26T15:50:28;101605.69;;;3.48;100.00
24825;BME280;12910;57.690;11.974;2023-02-26T15:52:58;101577.63;;;3.45;100.00
24825;BME280;12910;57.690;11.974;2023-02-26T15:55:24;101574.31;;;3.46;100.00
24825;BME280;12910;57.690;11.974;2023-02-26T15:57:51;101555.72;;;3.32;100.00